createdAt,value
2018-12-27T00:00:51.393Z,10.20
2018-12-27T00:03:21.807Z,11.63
2018-12-27T00:05:52.121Z,10.68
2018-12-27T00:08:22.896Z,10.38
2018-12-27T00:10:53.190Z,10.20
2018-12-27T00:13:42.300Z,11.03
2018-12-27T00:16:12.664Z,11.03
2018-12-27T00:18:42.982Z,10.98
2018-12-27T00:21:13.396Z,10.80
2018-12-27T00:26:54.087Z,10.50
2018-12-27T00:32:42.988Z,9.85
2018-12-27T00:35:32.249Z,11.78
2018-12-27T00:38:02.712Z,9.90
2018-12-27T00:40:33.074Z,11.75
2018-12-27T00:46:21.174Z,10.15
2018-12-27T00:48:52.142Z,10.60
2018-12-27T00:51:33.726Z,11.65
2018-12-27T00:54:04.063Z,11.68
2018-12-27T00:56:34.968Z,9.33
2018-12-27T00:59:05.444Z,9.80
2018-12-27T01:01:35.768Z,10.18
2018-12-27T01:04:06.447Z,10.80
2018-12-27T01:06:37.013Z,10.40
2018-12-27T01:09:07.894Z,10.40
2018-12-27T01:11:38.311Z,10.18
2018-12-27T01:14:09.375Z,9.73
2018-12-27T01:16:39.592Z,10.55
2018-12-27T01:19:28.866Z,10.43
2018-12-27T01:21:59.208Z,10.05
2018-12-27T01:24:29.599Z,10.30
2018-12-27T01:30:13.426Z,9.40
2018-12-27T01:32:43.867Z,9.45
2018-12-27T01:35:14.291Z,9.80
2018-12-27T01:38:03.606Z,11.03
2018-12-27T01:40:33.975Z,10.43
2018-12-27T01:43:04.792Z,9.48
2018-12-27T01:45:53.991Z,11.05
2018-12-27T01:48:24.368Z,12.03
2018-12-27T01:50:54.833Z,10.50
2018-12-27T01:53:25.498Z,9.43
2018-12-27T01:55:55.944Z,10.40
2018-12-27T01:58:26.246Z,10.43
2018-12-27T02:07:15.299Z,10.13
2018-12-27T02:10:04.403Z,9.85
2018-12-27T02:12:34.891Z,10.05
2018-12-27T02:15:05.328Z,10.70
2018-12-27T02:17:35.784Z,11.18
2018-12-27T02:20:25.029Z,11.20
2018-12-27T02:22:55.358Z,10.60
2018-12-27T02:25:25.663Z,10.23
2018-12-27T02:27:56.158Z,10.50
2018-12-27T02:30:26.628Z,9.18
2018-12-27T02:32:57.056Z,9.60
2018-12-27T02:35:27.577Z,7.85
2018-12-27T02:37:57.907Z,8.73
2018-12-27T02:40:28.161Z,8.70
2018-12-27T02:42:58.565Z,7.87
2018-12-27T02:45:29.003Z,7.87
2018-12-27T02:47:59.342Z,7.70
2018-12-27T02:50:48.603Z,8.05
2018-12-27T02:53:19.131Z,7.92
2018-12-27T02:55:49.453Z,7.47
2018-12-27T03:01:12.205Z,7.10
2018-12-27T03:03:43.999Z,7.72
2018-12-27T03:06:14.768Z,7.42
2018-12-27T03:08:45.342Z,7.85
2018-12-27T03:11:15.850Z,7.62
2018-12-27T03:13:46.259Z,8.00
2018-12-27T03:16:16.744Z,8.05
2018-12-27T03:18:47.606Z,7.92
2018-12-27T03:21:18.361Z,8.13
2018-12-27T03:23:49.349Z,7.55
2018-12-27T03:26:19.689Z,7.58
2018-12-27T03:28:50.508Z,7.33
2018-12-27T03:31:20.877Z,7.17
2018-12-27T03:33:52.897Z,7.25
2018-12-27T03:36:23.418Z,8.30
2018-12-27T03:38:53.887Z,7.35
2018-12-27T03:41:24.299Z,8.08
2018-12-27T03:44:13.358Z,7.90
2018-12-27T03:46:43.784Z,7.75
2018-12-27T03:49:14.095Z,8.00
2018-12-27T03:51:44.541Z,8.45
2018-12-27T03:54:14.934Z,9.28
2018-12-27T03:56:45.334Z,8.23
2018-12-27T03:59:15.980Z,8.10
2018-12-27T04:02:05.497Z,8.98
2018-12-27T04:04:35.921Z,8.78
2018-12-27T04:07:06.280Z,8.35
2018-12-27T04:09:36.734Z,7.87
2018-12-27T04:21:04.568Z,8.15
2018-12-27T04:26:45.051Z,9.85
2018-12-27T04:29:15.477Z,8.00
2018-12-27T04:32:24.553Z,7.05
2018-12-27T04:38:04.867Z,6.67
2018-12-27T04:40:35.230Z,6.97
2018-12-27T04:46:29.263Z,6.78
2018-12-27T04:52:14.400Z,6.22
2018-12-27T05:03:36.666Z,4.87
2018-12-27T05:08:52.060Z,6.35
2018-12-27T05:11:22.349Z,6.50
2018-12-27T05:13:52.626Z,6.42
2018-12-27T05:16:41.729Z,5.90
2018-12-27T05:19:30.935Z,6.72
2018-12-27T05:28:04.840Z,6.25
2018-12-27T05:30:35.156Z,6.25
2018-12-27T05:33:05.413Z,6.40
2018-12-27T05:38:29.617Z,6.05
2018-12-27T05:41:20.233Z,5.90
2018-12-27T05:44:09.295Z,5.90
2018-12-27T05:46:59.698Z,7.03
2018-12-27T05:49:48.768Z,6.80
2018-12-27T05:52:19.248Z,5.80
2018-12-27T05:57:33.651Z,7.50
2018-12-27T06:00:04.016Z,7.30
2018-12-27T06:05:30.302Z,6.83
2018-12-27T06:08:00.593Z,7.28
2018-12-27T06:10:30.910Z,7.03
2018-12-27T06:13:01.218Z,7.20
2018-12-27T06:15:50.507Z,7.28
2018-12-27T06:18:20.906Z,8.40
2018-12-27T06:20:51.218Z,8.15
2018-12-27T06:26:17.834Z,8.13
2018-12-27T06:28:48.142Z,8.25
2018-12-27T06:31:18.371Z,7.03
2018-12-27T06:33:48.698Z,7.30
2018-12-27T06:36:19.058Z,6.85
2018-12-27T06:38:49.488Z,6.85
2018-12-27T06:41:19.841Z,7.80
2018-12-27T06:43:50.215Z,6.75
2018-12-27T06:46:20.585Z,8.25
2018-12-27T06:48:50.999Z,7.25
2018-12-27T06:51:21.270Z,6.78
2018-12-27T06:53:51.532Z,6.72
2018-12-27T06:56:33.094Z,7.20
2018-12-27T06:59:14.561Z,6.75
2018-12-27T07:01:45.042Z,6.40
2018-12-27T07:04:15.346Z,7.75
2018-12-27T07:06:46.064Z,6.72
2018-12-27T07:09:16.753Z,7.00
2018-12-27T07:11:47.091Z,8.90
2018-12-27T07:14:17.392Z,8.75
2018-12-27T07:16:47.710Z,8.48
2018-12-27T07:19:36.838Z,8.20
2018-12-27T07:22:07.184Z,9.30
2018-12-27T07:24:37.483Z,10.03
2018-12-27T07:27:10.503Z,8.78
2018-12-27T07:29:59.586Z,7.72
2018-12-27T07:32:29.880Z,10.65
2018-12-27T07:35:00.160Z,7.85
2018-12-27T07:37:30.545Z,8.50
2018-12-27T07:51:43.000Z,7.50
2018-12-27T07:57:27.877Z,6.53
2018-12-27T08:03:09.295Z,7.70
2018-12-27T08:05:58.459Z,8.30
2018-12-27T08:08:28.898Z,7.40
2018-12-27T08:10:59.214Z,8.30
2018-12-27T08:13:29.476Z,7.27
2018-12-27T08:15:59.789Z,8.63
2018-12-27T08:18:30.122Z,8.40
2018-12-27T08:21:00.518Z,8.13
2018-12-27T08:23:49.787Z,9.37
2018-12-27T08:26:20.132Z,8.37
2018-12-27T08:29:09.195Z,8.20
2018-12-27T08:31:59.708Z,8.83
2018-12-27T08:34:30.185Z,8.37
2018-12-27T08:37:00.471Z,8.53
2018-12-27T08:39:30.812Z,9.60
2018-12-27T08:42:01.237Z,9.87
2018-12-27T08:50:37.179Z,11.77
2018-12-27T08:53:07.414Z,12.30
2018-12-27T08:55:37.718Z,11.20
2018-12-27T09:01:02.568Z,8.23
2018-12-27T09:03:32.809Z,8.10
2018-12-27T09:06:03.077Z,8.20
2018-12-27T09:08:33.526Z,8.00
2018-12-27T09:11:03.794Z,8.73
2018-12-27T09:13:33.941Z,7.30
2018-12-27T09:16:04.410Z,7.03
2018-12-27T09:18:34.630Z,7.37
2018-12-27T09:21:23.740Z,8.23
2018-12-27T09:29:30.140Z,7.23
2018-12-27T09:32:00.412Z,7.57
2018-12-27T09:34:30.626Z,8.40
2018-12-27T09:40:34.675Z,13.40
2018-12-27T09:43:05.008Z,11.23
2018-12-27T09:51:37.584Z,9.83
2018-12-27T09:54:07.806Z,9.73
2018-12-27T09:56:38.055Z,9.07
2018-12-27T09:59:19.626Z,9.57
2018-12-27T10:01:49.954Z,10.87
2018-12-27T10:04:20.220Z,12.30
2018-12-27T10:06:50.551Z,13.20
2018-12-27T10:09:20.823Z,12.77
2018-12-27T10:11:51.016Z,13.90
2018-12-27T10:14:21.406Z,14.13
2018-12-27T10:20:01.348Z,13.10
2018-12-27T10:25:22.250Z,11.30
2018-12-27T10:28:11.222Z,13.30
2018-12-27T10:30:41.970Z,11.90
2018-12-27T10:33:12.268Z,11.87
2018-12-27T10:35:42.621Z,12.87
2018-12-27T10:38:12.826Z,13.03
2018-12-27T10:43:41.720Z,13.37
2018-12-27T10:46:11.997Z,7.03
2018-12-27T10:48:42.011Z,8.50
2018-12-27T10:51:12.616Z,8.90
2018-12-27T10:56:55.675Z,4.47
2018-12-27T10:59:26.032Z,5.63
2018-12-27T11:01:56.246Z,4.90
2018-12-27T11:05:05.411Z,4.83
2018-12-27T11:07:35.592Z,4.80
2018-12-27T11:13:14.066Z,4.83
2018-12-27T11:18:28.851Z,4.13
2018-12-27T11:21:19.248Z,4.83
2018-12-27T11:24:01.602Z,5.63
2018-12-27T11:32:35.292Z,4.10
2018-12-27T11:38:01.526Z,4.27
2018-12-27T11:43:36.748Z,4.33
2018-12-27T11:55:03.608Z,4.20
2018-12-27T12:00:33.945Z,5.40
2018-12-27T12:03:04.398Z,4.37
2018-12-27T12:05:34.725Z,4.83
2018-12-27T12:08:05.186Z,5.70
2018-12-27T12:10:35.639Z,4.80
2018-12-27T12:13:05.969Z,4.43
2018-12-27T12:15:36.369Z,4.77
2018-12-27T12:18:06.587Z,4.23
2018-12-27T12:20:36.819Z,5.23
2018-12-27T12:23:07.368Z,4.73
2018-12-27T12:25:56.692Z,4.20
2018-12-27T12:29:05.862Z,4.40
2018-12-27T12:31:37.686Z,6.07
2018-12-27T12:34:26.782Z,5.67
2018-12-27T12:40:07.425Z,4.20
2018-12-27T12:43:16.714Z,4.93
2018-12-27T12:46:06.042Z,4.67
2018-12-27T12:48:55.307Z,4.37
2018-12-27T12:52:04.655Z,4.30
2018-12-27T13:01:09.330Z,4.20
2018-12-27T13:04:17.105Z,4.23
2018-12-27T13:10:21.521Z,4.50
2018-12-27T13:16:01.671Z,4.60
2018-12-27T13:18:31.785Z,5.67
2018-12-27T13:24:17.479Z,5.73
2018-12-27T13:30:13.310Z,4.83
2018-12-27T13:33:02.415Z,5.50
2018-12-27T13:35:58.158Z,5.40
2018-12-27T13:38:47.291Z,9.00
2018-12-27T13:41:36.504Z,9.57
2018-12-27T13:44:07.017Z,9.57
2018-12-27T13:52:21.597Z,12.57
2018-12-27T13:58:23.814Z,12.53
2018-12-27T14:01:08.150Z,11.33
2018-12-27T14:03:50.479Z,11.60
2018-12-27T14:06:32.837Z,12.80
2018-12-27T14:09:16.937Z,10.93
2018-12-27T14:12:07.489Z,13.30
2018-12-27T14:20:38.250Z,11.97
2018-12-27T14:23:12.142Z,14.60
2018-12-27T14:25:42.839Z,14.57
2018-12-27T14:28:13.668Z,13.30
2018-12-27T14:30:44.064Z,14.93
2018-12-27T14:39:33.893Z,14.40
2018-12-27T14:44:49.735Z,15.30
2018-12-27T14:47:20.199Z,15.68
2018-12-27T14:58:40.635Z,17.40
2018-12-27T15:10:01.499Z,20.15
2018-12-27T15:24:47.218Z,49.73
2018-12-27T15:41:28.570Z,18.75
2018-12-27T15:43:58.794Z,22.27
2018-12-27T15:46:29.086Z,24.53
2018-12-27T15:48:59.436Z,34.48
2018-12-27T15:51:48.507Z,33.13
2018-12-27T15:54:19.009Z,25.77
2018-12-27T15:56:49.812Z,31.30
2018-12-27T15:59:38.906Z,31.83
2018-12-27T16:02:09.203Z,32.33
2018-12-27T16:04:59.588Z,28.37
2018-12-27T16:10:40.185Z,30.63
2018-12-27T16:15:57.119Z,28.67
2018-12-27T16:18:27.402Z,24.57
2018-12-27T16:20:57.651Z,25.43
2018-12-27T16:26:22.881Z,23.90
2018-12-27T16:28:53.639Z,23.15
2018-12-27T16:31:23.963Z,22.93
2018-12-27T16:33:54.531Z,20.23
2018-12-27T16:36:24.821Z,21.12
2018-12-27T16:38:55.145Z,20.60
2018-12-27T16:41:25.520Z,22.80
2018-12-27T16:44:16.149Z,28.25
2018-12-27T16:50:21.504Z,28.17
2018-12-27T16:56:09.451Z,31.80
2018-12-27T16:59:01.053Z,30.32
2018-12-27T17:02:10.693Z,22.25
2018-12-27T17:07:57.532Z,18.92
2018-12-27T17:13:31.295Z,17.35
2018-12-27T17:16:21.838Z,18.90
2018-12-27T17:28:09.513Z,18.52
2018-12-27T17:30:58.523Z,17.32
2018-12-27T17:36:50.277Z,17.02
2018-12-27T17:45:36.521Z,17.75
2018-12-27T18:00:47.534Z,16.17
2018-12-27T18:03:55.295Z,17.00
2018-12-27T18:06:44.750Z,18.27
2018-12-27T18:12:48.616Z,18.10
2018-12-27T18:27:37.814Z,17.27
2018-12-27T18:42:29.440Z,17.23
2018-12-27T18:51:13.782Z,16.17
2018-12-27T18:57:32.695Z,13.50
2018-12-27T19:00:24.539Z,11.68
2018-12-27T19:15:15.781Z,15.13
2018-12-27T19:20:43.466Z,15.25
2018-12-27T19:26:34.564Z,15.50
2018-12-27T19:29:15.562Z,16.52
2018-12-27T19:31:57.407Z,19.23
2018-12-27T19:34:37.951Z,17.80
2018-12-27T19:37:19.572Z,17.85
2018-12-27T19:43:16.536Z,17.40
2018-12-27T19:49:14.965Z,16.10
2018-12-27T19:52:04.041Z,16.82
2018-12-27T19:54:45.819Z,16.23
2018-12-27T20:06:17.739Z,16.12
2018-12-27T20:09:04.355Z,16.20
2018-12-27T20:11:50.979Z,16.12
2018-12-27T20:14:37.523Z,15.13
2018-12-27T20:17:28.178Z,14.63
2018-12-27T20:20:18.654Z,14.90
2018-12-27T20:23:09.573Z,14.03
2018-12-27T20:26:00.202Z,14.85
2018-12-27T20:34:44.715Z,19.15
2018-12-27T20:43:54.337Z,16.00
2018-12-27T20:49:45.318Z,15.05
2018-12-27T20:52:26.956Z,15.43
2018-12-27T20:55:07.869Z,15.78
2018-12-27T21:00:34.782Z,14.50
2018-12-27T21:03:15.549Z,17.12
2018-12-27T21:05:56.723Z,17.10
2018-12-27T21:11:23.287Z,17.42
2018-12-27T21:17:17.749Z,16.12
2018-12-27T21:26:23.063Z,15.90
2018-12-27T21:29:32.877Z,17.75
2018-12-27T21:32:43.829Z,18.50
2018-12-27T21:35:33.322Z,15.45
2018-12-27T21:38:42.578Z,16.82
2018-12-27T21:50:28.234Z,17.50
2018-12-27T21:59:07.933Z,17.75
2018-12-27T22:07:53.486Z,16.07
2018-12-27T22:10:34.858Z,17.60
2018-12-27T22:13:16.391Z,16.30
2018-12-27T22:24:51.354Z,15.38
2018-12-27T22:30:25.111Z,15.30
2018-12-27T22:33:14.448Z,15.32
2018-12-27T22:36:03.776Z,14.73
2018-12-27T22:38:59.424Z,15.35
2018-12-27T22:44:56.743Z,14.13
2018-12-27T22:50:50.919Z,17.20
2018-12-27T22:53:41.849Z,16.30
2018-12-27T22:56:22.714Z,16.20
2018-12-27T23:05:13.320Z,15.75
2018-12-27T23:08:04.018Z,17.62
2018-12-27T23:10:52.380Z,16.15
2018-12-27T23:13:47.652Z,16.55
2018-12-27T23:16:36.843Z,16.30
2018-12-27T23:19:17.739Z,15.08
2018-12-27T23:22:07.043Z,15.68
2018-12-27T23:24:57.666Z,16.93
2018-12-27T23:31:06.631Z,16.02
2018-12-27T23:37:05.673Z,15.83
2018-12-27T23:43:09.597Z,15.00
2018-12-27T23:45:51.207Z,16.10
2018-12-27T23:48:32.845Z,14.85
2018-12-27T23:54:05.004Z,13.78
2018-12-27T23:59:17.560Z,14.68
